createdAt,value
2023-04-06T00:01:41.651Z,73.95
2023-04-06T00:04:11.598Z,74.16
2023-04-06T00:06:40.661Z,74.39
2023-04-06T00:09:09.899Z,74.64
2023-04-06T00:11:38.375Z,74.65
2023-04-06T00:14:18.694Z,74.99
2023-04-06T00:16:47.167Z,75.13
2023-04-06T00:19:16.252Z,75.33
2023-04-06T00:21:46.899Z,75.54
2023-04-06T00:24:15.294Z,75.76
2023-04-06T00:26:43.861Z,75.90
2023-04-06T00:29:12.393Z,75.99
2023-04-06T00:31:42.461Z,76.22
2023-04-06T00:34:11.448Z,76.43
2023-04-06T00:36:40.665Z,76.47
2023-04-06T00:39:09.176Z,76.61
2023-04-06T00:41:37.789Z,76.67
2023-04-06T00:44:06.890Z,76.81
2023-04-06T00:46:38.129Z,76.93
2023-04-06T00:49:08.011Z,77.03
2023-04-06T00:51:37.506Z,77.21
2023-04-06T00:54:14.992Z,77.31
2023-04-06T00:56:47.338Z,77.45
2023-04-06T00:59:15.833Z,77.66
2023-04-06T01:01:45.015Z,77.68
2023-04-06T01:04:28.439Z,77.83
2023-04-06T01:06:57.793Z,77.89
2023-04-06T01:09:33.325Z,78.09
2023-04-06T01:12:04.661Z,78.25
2023-04-06T01:14:33.737Z,78.27
2023-04-06T01:17:03.174Z,78.48
2023-04-06T01:19:34.091Z,78.59
2023-04-06T01:22:03.248Z,78.80
2023-04-06T01:24:31.691Z,78.97
2023-04-06T01:27:20.422Z,79.17
2023-04-06T01:29:59.548Z,79.23
2023-04-06T01:32:54.852Z,79.39
2023-04-06T01:35:32.785Z,79.37
2023-04-06T01:38:12.027Z,79.49
2023-04-06T01:40:40.737Z,79.46
2023-04-06T01:43:09.170Z,79.56
2023-04-06T01:45:45.638Z,79.61
2023-04-06T01:48:22.253Z,79.56
2023-04-06T01:50:50.942Z,79.49
2023-04-06T01:53:34.033Z,79.58
2023-04-06T01:56:10.552Z,79.36
2023-04-06T01:58:47.369Z,79.42
2023-04-06T02:01:20.385Z,79.42
2023-04-06T02:03:55.935Z,79.41
2023-04-06T02:06:29.387Z,79.36
2023-04-06T02:08:58.864Z,79.37
2023-04-06T02:11:30.308Z,79.40
2023-04-06T02:14:08.103Z,79.33
2023-04-06T02:16:44.478Z,79.30
2023-04-06T02:19:20.710Z,79.18
2023-04-06T02:21:58.889Z,79.14
2023-04-06T02:24:27.776Z,79.04
2023-04-06T02:26:56.561Z,78.99
2023-04-06T02:29:26.903Z,78.84
2023-04-06T02:31:56.498Z,78.84
2023-04-06T02:34:25.789Z,78.75
2023-04-06T02:36:54.123Z,78.55
2023-04-06T02:39:22.563Z,78.49
2023-04-06T02:41:53.415Z,78.44
2023-04-06T02:44:23.977Z,78.34
2023-04-06T02:46:52.350Z,78.30
2023-04-06T02:49:22.711Z,78.19
2023-04-06T02:51:53.928Z,78.12
2023-04-06T02:54:31.430Z,77.98
2023-04-06T02:57:00.411Z,77.96
2023-04-06T02:59:36.377Z,77.91
2023-04-06T03:02:14.334Z,77.80
2023-04-06T03:04:43.879Z,77.72
2023-04-06T03:07:24.453Z,77.57
2023-04-06T03:09:56.032Z,77.37
2023-04-06T03:12:25.223Z,77.31
2023-04-06T03:15:26.025Z,77.17
2023-04-06T03:18:00.664Z,77.16
2023-04-06T03:20:49.441Z,76.98
2023-04-06T03:23:24.992Z,76.85
2023-04-06T03:25:58.128Z,76.78
2023-04-06T03:28:26.868Z,76.75
2023-04-06T03:31:04.285Z,76.65
2023-04-06T03:33:54.768Z,76.55
2023-04-06T03:36:27.493Z,76.44
2023-04-06T03:38:57.572Z,76.40
2023-04-06T03:41:26.664Z,76.47
2023-04-06T03:44:07.948Z,76.33
2023-04-06T03:46:37.968Z,76.26
2023-04-06T03:49:06.823Z,76.09
2023-04-06T03:51:36.031Z,76.01
2023-04-06T03:54:04.966Z,75.85
2023-04-06T03:56:33.294Z,75.81
2023-04-06T03:59:06.842Z,75.85
2023-04-06T04:01:37.804Z,75.86
2023-04-06T04:04:06.441Z,75.77
2023-04-06T04:06:37.676Z,75.69
2023-04-06T04:09:10.080Z,75.66
2023-04-06T04:11:39.738Z,75.78
2023-04-06T04:14:08.372Z,75.76
2023-04-06T04:16:37.207Z,75.67
2023-04-06T04:19:05.711Z,75.67
2023-04-06T04:21:34.148Z,75.62
2023-04-06T04:24:09.276Z,75.44
2023-04-06T04:26:39.021Z,75.28
2023-04-06T04:29:08.024Z,75.29
2023-04-06T04:31:38.445Z,75.18
2023-04-06T04:34:09.473Z,75.12
2023-04-06T04:36:43.267Z,75.14
2023-04-06T04:39:14.243Z,75.26
2023-04-06T04:41:44.311Z,75.09
2023-04-06T04:44:14.730Z,75.21
2023-04-06T04:46:44.013Z,75.16
2023-04-06T04:49:12.781Z,75.01
2023-04-06T04:51:41.514Z,74.82
2023-04-06T04:54:13.452Z,74.75
2023-04-06T04:56:45.265Z,74.52
2023-04-06T04:59:44.375Z,74.51
2023-04-06T05:02:18.691Z,74.43
2023-04-06T05:04:54.495Z,74.21
2023-04-06T05:07:28.290Z,74.17
2023-04-06T05:10:06.063Z,74.01
2023-04-06T05:12:42.319Z,74.02
2023-04-06T05:15:12.248Z,73.81
2023-04-06T05:17:42.028Z,73.49
2023-04-06T05:20:12.698Z,73.26
2023-04-06T05:22:47.001Z,73.21
2023-04-06T05:25:16.742Z,73.07
2023-04-06T05:27:46.127Z,73.04
2023-04-06T05:30:29.822Z,72.97
2023-04-06T05:32:59.980Z,72.91
2023-04-06T05:35:31.114Z,72.88
2023-04-06T05:38:01.399Z,72.74
2023-04-06T05:40:30.852Z,72.67
2023-04-06T05:42:59.132Z,72.71
2023-04-06T05:45:27.441Z,72.58
2023-04-06T05:47:57.421Z,72.61
2023-04-06T05:50:30.032Z,72.56
2023-04-06T05:52:58.918Z,72.36
2023-04-06T05:55:30.712Z,72.04
2023-04-06T05:58:10.902Z,72.00
2023-04-06T06:00:47.234Z,71.90
2023-04-06T06:03:29.096Z,71.85
2023-04-06T06:06:05.863Z,71.84
2023-04-06T06:08:54.609Z,71.68
2023-04-06T06:11:25.866Z,71.34
2023-04-06T06:13:54.618Z,71.00
2023-04-06T06:16:23.026Z,70.39
2023-04-06T06:18:51.766Z,69.92
2023-04-06T06:21:21.131Z,69.64
2023-04-06T06:23:56.494Z,69.44
2023-04-06T06:26:25.529Z,68.72
2023-04-06T06:28:54.209Z,68.18
2023-04-06T06:31:27.266Z,67.89
2023-04-06T06:33:58.286Z,67.89
2023-04-06T06:36:36.614Z,67.67
2023-04-06T06:39:08.089Z,67.53
2023-04-06T06:41:37.826Z,67.53
2023-04-06T06:44:06.982Z,67.17
2023-04-06T06:46:43.257Z,66.88
2023-04-06T06:49:13.555Z,66.67
2023-04-06T06:51:42.061Z,66.42
2023-04-06T06:54:11.407Z,66.14
2023-04-06T06:56:40.470Z,65.54
2023-04-06T06:59:09.050Z,65.31
2023-04-06T07:01:37.846Z,65.33
2023-04-06T07:04:06.618Z,65.37
2023-04-06T07:06:42.033Z,65.38
2023-04-06T07:09:10.357Z,65.28
2023-04-06T07:11:38.714Z,65.14
2023-04-06T07:14:13.582Z,65.26
2023-04-06T07:16:42.530Z,65.15
2023-04-06T07:19:11.746Z,65.02
2023-04-06T07:21:46.175Z,65.15
2023-04-06T07:24:14.442Z,65.02
2023-04-06T07:26:43.641Z,64.87
2023-04-06T07:29:13.919Z,64.75
2023-04-06T07:31:43.158Z,64.52
2023-04-06T07:34:12.774Z,64.48
2023-04-06T07:36:45.058Z,64.33
2023-04-06T07:39:13.896Z,64.36
2023-04-06T07:41:43.146Z,64.48
2023-04-06T07:44:11.992Z,64.47
2023-04-06T07:46:40.574Z,64.50
2023-04-06T07:49:11.445Z,64.65
2023-04-06T07:51:41.298Z,64.88
2023-04-06T07:54:10.951Z,65.03
2023-04-06T07:56:41.547Z,65.16
2023-04-06T07:59:09.984Z,65.31
2023-04-06T08:01:38.721Z,65.26
2023-04-06T08:04:08.351Z,65.22
2023-04-06T08:06:37.541Z,65.15
2023-04-06T08:09:08.770Z,65.21
2023-04-06T08:11:37.431Z,65.07
2023-04-06T08:14:05.711Z,64.78
2023-04-06T08:16:38.957Z,64.77
2023-04-06T08:19:10.416Z,64.71
2023-04-06T08:21:38.684Z,64.79
2023-04-06T08:24:11.035Z,64.98
2023-04-06T08:26:39.492Z,65.14
2023-04-06T08:29:10.443Z,65.16
2023-04-06T08:31:39.224Z,65.23
2023-04-06T08:34:14.259Z,65.31
2023-04-06T08:36:48.174Z,65.26
2023-04-06T08:39:16.716Z,65.08
2023-04-06T08:41:45.550Z,64.95
2023-04-06T08:44:22.552Z,64.80
2023-04-06T08:46:52.940Z,64.81
2023-04-06T08:49:21.154Z,64.99
2023-04-06T08:51:49.879Z,65.22
2023-04-06T08:54:18.330Z,65.46
2023-04-06T08:56:46.864Z,65.96
2023-04-06T08:59:15.281Z,66.46
2023-04-06T09:01:44.420Z,66.98
2023-04-06T09:04:15.387Z,67.53
2023-04-06T09:06:44.971Z,67.99
2023-04-06T09:09:14.223Z,68.29
2023-04-06T09:11:44.655Z,68.33
2023-04-06T09:14:13.912Z,68.35
2023-04-06T09:16:46.768Z,68.36
2023-04-06T09:19:15.236Z,68.32
2023-04-06T09:21:43.477Z,68.33
2023-04-06T09:24:12.317Z,68.40
2023-04-06T09:26:49.612Z,68.69
2023-04-06T09:29:26.083Z,69.13
2023-04-06T09:32:11.806Z,69.79
2023-04-06T09:34:40.636Z,70.39
2023-04-06T09:37:19.341Z,70.91
2023-04-06T09:39:49.224Z,71.62
2023-04-06T09:42:27.243Z,72.01
2023-04-06T09:44:56.310Z,72.60
2023-04-06T09:47:27.861Z,72.80
2023-04-06T09:49:59.177Z,73.19
2023-04-06T09:52:29.351Z,73.53
2023-04-06T09:54:59.162Z,73.83
2023-04-06T09:57:33.822Z,73.91
2023-04-06T10:00:12.751Z,74.23
2023-04-06T10:03:21.661Z,74.68
2023-04-06T10:06:13.833Z,75.03
2023-04-06T10:08:59.449Z,75.36
2023-04-06T10:11:46.027Z,75.60
2023-04-06T10:14:28.286Z,75.88
2023-04-06T10:16:56.720Z,76.06
2023-04-06T10:19:27.857Z,76.34
2023-04-06T10:21:57.180Z,76.59
2023-04-06T10:24:27.292Z,76.74
2023-04-06T10:27:02.090Z,76.79
2023-04-06T10:29:52.764Z,76.67
2023-04-06T10:32:21.743Z,76.62
2023-04-06T10:34:50.231Z,76.72
2023-04-06T10:37:21.826Z,76.91
2023-04-06T10:39:56.088Z,76.86
2023-04-06T10:42:37.224Z,76.65
2023-04-06T10:45:08.769Z,76.35
2023-04-06T10:47:41.764Z,76.13
2023-04-06T10:50:12.364Z,75.89
2023-04-06T10:52:41.954Z,75.48
2023-04-06T10:55:13.240Z,75.34
2023-04-06T10:57:41.947Z,75.15
2023-04-06T11:00:13.831Z,74.81
2023-04-06T11:02:42.824Z,74.35
2023-04-06T11:05:12.999Z,73.95
2023-04-06T11:07:45.390Z,73.67
2023-04-06T11:10:22.659Z,73.63
2023-04-06T11:12:57.301Z,73.56
2023-04-06T11:15:26.684Z,73.52
2023-04-06T11:17:55.148Z,73.60
2023-04-06T11:20:24.388Z,73.79
2023-04-06T11:22:53.402Z,74.02
2023-04-06T11:25:21.927Z,74.20
2023-04-06T11:27:51.762Z,74.04
2023-04-06T11:30:20.790Z,73.74
2023-04-06T11:32:49.983Z,73.71
2023-04-06T11:35:24.595Z,73.63
2023-04-06T11:37:53.114Z,73.51
2023-04-06T11:40:25.014Z,73.52
2023-04-06T11:42:53.790Z,72.68
2023-04-06T11:45:23.437Z,71.92
2023-04-06T11:48:00.567Z,71.68
2023-04-06T11:50:35.012Z,71.59
2023-04-06T11:53:04.970Z,71.39
2023-04-06T11:55:39.338Z,71.09
2023-04-06T11:58:10.681Z,71.05
2023-04-06T12:00:39.908Z,70.54
2023-04-06T12:03:09.552Z,69.58
2023-04-06T12:05:42.318Z,68.16
2023-04-06T12:08:17.219Z,67.76
2023-04-06T12:10:45.609Z,67.96
2023-04-06T12:13:16.769Z,67.61
2023-04-06T12:15:46.610Z,66.82
2023-04-06T12:18:21.267Z,66.06
2023-04-06T12:20:54.613Z,65.78
2023-04-06T12:23:25.746Z,65.67
2023-04-06T12:25:55.829Z,64.57
2023-04-06T12:28:28.085Z,64.25
2023-04-06T12:30:56.476Z,64.27
2023-04-06T12:33:27.422Z,64.18
2023-04-06T12:35:55.864Z,64.27
2023-04-06T12:38:24.163Z,64.16
2023-04-06T12:40:52.456Z,64.52
2023-04-06T12:43:21.335Z,64.82
2023-04-06T12:45:51.707Z,64.82
2023-04-06T12:48:20.564Z,64.77
2023-04-06T12:51:02.253Z,64.72
2023-04-06T12:53:31.694Z,64.65
2023-04-06T12:56:00.189Z,64.53
2023-04-06T12:58:30.833Z,64.20
2023-04-06T13:01:04.167Z,63.50
2023-04-06T13:03:34.856Z,62.45
2023-04-06T13:06:03.387Z,62.23
2023-04-06T13:08:32.011Z,62.21
2023-04-06T13:11:00.260Z,62.46
2023-04-06T13:13:30.844Z,62.69
2023-04-06T13:16:03.513Z,62.79
2023-04-06T13:18:34.092Z,63.01
2023-04-06T13:21:02.314Z,63.10
2023-04-06T13:23:33.255Z,62.98
2023-04-06T13:26:06.886Z,62.87
2023-04-06T13:28:39.640Z,62.76
2023-04-06T13:31:11.003Z,62.86
2023-04-06T13:33:47.597Z,63.42
2023-04-06T13:36:17.993Z,63.95
2023-04-06T13:38:48.231Z,64.52
2023-04-06T13:41:24.457Z,65.13
2023-04-06T13:43:59.874Z,65.81
2023-04-06T13:46:28.956Z,66.45
2023-04-06T13:48:58.003Z,66.77
2023-04-06T13:51:27.849Z,67.17
2023-04-06T13:53:56.330Z,67.91
2023-04-06T13:56:24.636Z,68.57
2023-04-06T13:58:57.469Z,69.12
2023-04-06T14:01:27.884Z,69.66
2023-04-06T14:04:04.145Z,70.05
2023-04-06T14:06:34.765Z,70.58
2023-04-06T14:09:03.477Z,70.83
2023-04-06T14:11:33.880Z,71.29
2023-04-06T14:14:02.856Z,71.68
2023-04-06T14:16:31.120Z,72.00
2023-04-06T14:19:00.019Z,72.07
2023-04-06T14:21:28.545Z,72.04
2023-04-06T14:23:59.611Z,72.03
2023-04-06T14:26:28.863Z,71.95
2023-04-06T14:29:01.376Z,71.59
2023-04-06T14:31:30.142Z,71.32
2023-04-06T14:33:59.007Z,71.00
2023-04-06T14:36:29.818Z,70.84
2023-04-06T14:38:58.584Z,70.39
2023-04-06T14:41:31.440Z,69.97
2023-04-06T14:43:59.848Z,69.54
2023-04-06T14:46:28.596Z,69.94
2023-04-06T14:48:58.911Z,70.13
2023-04-06T14:51:30.111Z,70.11
2023-04-06T14:53:58.288Z,70.13
2023-04-06T14:56:28.146Z,70.10
2023-04-06T14:58:59.918Z,70.02
2023-04-06T15:01:28.741Z,70.02
2023-04-06T15:03:58.156Z,70.11
2023-04-06T15:06:27.009Z,70.04
2023-04-06T15:08:55.738Z,70.16
2023-04-06T15:11:24.122Z,70.18
2023-04-06T15:13:56.498Z,70.44
2023-04-06T15:16:25.341Z,70.74
2023-04-06T15:18:53.610Z,71.07
2023-04-06T15:21:22.563Z,71.38
2023-04-06T15:23:52.521Z,71.68
2023-04-06T15:26:21.450Z,72.02
2023-04-06T15:28:50.807Z,72.37
2023-04-06T15:31:36.653Z,72.58
2023-04-06T15:37:01.834Z,73.29
2023-04-06T15:39:30.269Z,73.49
2023-04-06T15:41:59.051Z,73.88
2023-04-06T15:44:27.946Z,74.13
2023-04-06T15:46:58.935Z,74.51
2023-04-06T15:49:27.503Z,74.78
2023-04-06T15:52:01.450Z,75.16
2023-04-06T15:54:30.045Z,75.35
2023-04-06T15:57:00.021Z,75.55
2023-04-06T15:59:28.874Z,76.00
2023-04-06T16:01:57.449Z,76.20
2023-04-06T16:04:26.311Z,76.41
2023-04-06T16:06:54.669Z,76.61
2023-04-06T16:09:23.172Z,77.07
2023-04-06T16:11:52.168Z,77.27
2023-04-06T16:14:20.550Z,77.34
2023-04-06T16:16:51.024Z,77.40
2023-04-06T16:19:19.741Z,77.61
2023-04-06T16:21:52.557Z,77.73
2023-04-06T16:24:21.290Z,77.90
2023-04-06T16:26:49.743Z,78.24
2023-04-06T16:29:18.324Z,78.36
2023-04-06T16:31:48.171Z,78.57
2023-04-06T16:34:17.140Z,78.83
2023-04-06T16:36:46.733Z,79.14
2023-04-06T16:39:16.293Z,79.16
2023-04-06T16:41:45.546Z,79.34
2023-04-06T16:44:13.732Z,79.42
2023-04-06T16:46:45.169Z,79.52
2023-04-06T16:49:13.604Z,79.49
2023-04-06T16:51:45.726Z,79.65
2023-04-06T16:54:14.213Z,79.68
2023-04-06T16:56:42.578Z,79.88
2023-04-06T16:59:11.351Z,79.98
2023-04-06T17:01:40.245Z,79.99
2023-04-06T17:04:08.981Z,80.13
2023-04-06T17:06:37.694Z,80.20
2023-04-06T17:09:06.159Z,80.22
2023-04-06T17:11:46.202Z,80.28
2023-04-06T17:14:16.737Z,80.41
2023-04-06T17:16:45.069Z,80.45
2023-04-06T17:19:15.945Z,80.56
2023-04-06T17:21:48.128Z,80.36
2023-04-06T17:24:18.639Z,79.79
2023-04-06T17:26:54.286Z,79.50
2023-04-06T17:29:48.623Z,79.30
2023-04-06T17:32:43.353Z,79.34
2023-04-06T17:35:43.436Z,79.28
2023-04-06T17:38:54.474Z,79.28
2023-04-06T17:41:22.843Z,79.34
2023-04-06T17:43:51.858Z,79.31
2023-04-06T17:46:21.620Z,79.41
2023-04-06T17:48:52.138Z,79.48
2023-04-06T17:51:21.617Z,79.41
2023-04-06T17:53:49.948Z,79.34
2023-04-06T17:56:18.255Z,79.35
2023-04-06T17:58:48.675Z,79.41
2023-04-06T18:01:20.660Z,79.30
2023-04-06T18:03:49.993Z,79.34
2023-04-06T18:06:19.516Z,79.24
2023-04-06T18:08:48.237Z,79.18
2023-04-06T18:11:18.949Z,79.11
2023-04-06T18:13:47.620Z,79.09
2023-04-06T18:16:20.499Z,79.04
2023-04-06T18:18:50.090Z,78.97
2023-04-06T18:21:18.668Z,78.94
2023-04-06T18:23:49.647Z,78.71
2023-04-06T18:26:23.298Z,78.76
2023-04-06T18:28:52.046Z,78.76
2023-04-06T18:31:27.495Z,78.58
2023-04-06T18:33:57.235Z,78.27
2023-04-06T18:36:28.131Z,77.88
2023-04-06T18:38:58.206Z,77.55
2023-04-06T18:41:27.177Z,77.34
2023-04-06T18:43:57.772Z,76.84
2023-04-06T18:46:27.628Z,76.52
2023-04-06T18:48:55.837Z,76.25
2023-04-06T18:51:35.194Z,76.14
2023-04-06T18:54:03.590Z,75.87
2023-04-06T18:56:33.702Z,75.61
2023-04-06T18:59:02.030Z,75.31
2023-04-06T19:01:31.944Z,75.01
2023-04-06T19:04:01.224Z,74.76
2023-04-06T19:06:33.235Z,74.43
2023-04-06T19:09:03.403Z,74.05
2023-04-06T19:11:33.824Z,73.67
2023-04-06T19:14:02.093Z,73.36
2023-04-06T19:16:31.819Z,73.21
2023-04-06T19:19:00.918Z,73.00
2023-04-06T19:21:29.117Z,72.80
2023-04-06T19:23:58.847Z,72.67
2023-04-06T19:26:28.222Z,72.47
2023-04-06T19:28:57.023Z,72.38
2023-04-06T19:31:28.389Z,72.38
2023-04-06T19:33:57.445Z,72.38
2023-04-06T19:36:26.523Z,72.08
2023-04-06T19:38:55.207Z,71.79
2023-04-06T19:41:24.710Z,71.46
2023-04-06T19:43:54.377Z,71.26
2023-04-06T19:46:22.861Z,71.12
2023-04-06T19:48:53.688Z,70.97
2023-04-06T19:51:21.819Z,70.98
2023-04-06T19:53:49.956Z,70.67
2023-04-06T19:56:20.844Z,70.61
2023-04-06T19:58:50.778Z,70.50
2023-04-06T20:01:19.306Z,70.28
2023-04-06T20:03:47.953Z,70.22
2023-04-06T20:06:17.768Z,70.19
2023-04-06T20:08:46.848Z,70.02
2023-04-06T20:11:23.507Z,69.95
2023-04-06T20:13:53.150Z,69.85
2023-04-06T20:16:22.416Z,69.61
2023-04-06T20:18:51.835Z,69.56
2023-04-06T20:21:24.813Z,69.32
2023-04-06T20:23:54.216Z,69.39
2023-04-06T20:26:22.488Z,69.19
2023-04-06T20:28:52.469Z,69.16
2023-04-06T20:31:28.500Z,69.14
2023-04-06T20:33:57.555Z,69.14
2023-04-06T20:36:26.443Z,69.02
2023-04-06T20:38:56.713Z,68.86
2023-04-06T20:41:25.553Z,68.76
2023-04-06T20:43:53.768Z,68.77
2023-04-06T20:46:22.223Z,68.91
2023-04-06T20:48:53.625Z,68.94
2023-04-06T20:51:26.219Z,68.82
2023-04-06T20:53:55.258Z,68.84
2023-04-06T20:56:27.690Z,68.87
2023-04-06T20:58:59.974Z,68.85
2023-04-06T21:01:29.455Z,68.71
2023-04-06T21:04:01.829Z,68.56
2023-04-06T21:06:34.217Z,68.44
2023-04-06T21:09:02.707Z,68.47
2023-04-06T21:11:31.549Z,68.39
2023-04-06T21:13:59.792Z,68.10
2023-04-06T21:16:38.353Z,67.98
2023-04-06T21:19:06.829Z,67.85
2023-04-06T21:21:35.027Z,67.73
2023-04-06T21:24:07.089Z,67.66
2023-04-06T21:26:36.886Z,67.77
2023-04-06T21:29:05.080Z,67.64
2023-04-06T21:31:44.256Z,67.63
2023-04-06T21:34:14.741Z,67.63
2023-04-06T21:36:42.991Z,67.69
2023-04-06T21:39:12.303Z,67.75
2023-04-06T21:41:40.927Z,67.69
2023-04-06T21:44:10.811Z,67.71
2023-04-06T21:46:39.203Z,67.84
2023-04-06T21:49:07.518Z,67.78
2023-04-06T21:51:37.193Z,67.70
2023-04-06T21:54:06.312Z,67.64
2023-04-06T21:56:35.041Z,67.63
2023-04-06T21:59:04.441Z,67.62
2023-04-06T22:01:33.425Z,67.52
2023-04-06T22:04:02.538Z,67.51
2023-04-06T22:06:32.293Z,67.33
2023-04-06T22:09:04.930Z,67.18
2023-04-06T22:11:39.734Z,67.03
2023-04-06T22:14:08.444Z,66.86
2023-04-06T22:16:37.058Z,66.68
2023-04-06T22:19:08.158Z,66.54
2023-04-06T22:21:36.703Z,66.47
2023-04-06T22:24:05.116Z,66.29
2023-04-06T22:26:34.393Z,66.26
2023-04-06T22:29:03.579Z,66.08
2023-04-06T22:31:33.187Z,65.96
2023-04-06T22:34:03.007Z,65.88
2023-04-06T22:36:32.414Z,66.03
2023-04-06T22:39:05.403Z,65.99
2023-04-06T22:41:34.671Z,65.94
2023-04-06T22:44:02.809Z,65.88
2023-04-06T22:46:31.342Z,65.87
2023-04-06T22:49:00.323Z,65.80
2023-04-06T22:51:28.861Z,65.75
2023-04-06T22:53:58.684Z,65.69
2023-04-06T22:56:34.255Z,65.62
2023-04-06T22:59:02.611Z,65.65
2023-04-06T23:01:31.740Z,65.64
2023-04-06T23:04:01.344Z,65.63
2023-04-06T23:06:29.979Z,65.60
2023-04-06T23:08:58.102Z,65.57
2023-04-06T23:11:26.855Z,65.47
2023-04-06T23:13:55.239Z,65.47
2023-04-06T23:16:23.997Z,65.39
2023-04-06T23:18:53.454Z,65.27
2023-04-06T23:21:23.016Z,65.09
2023-04-06T23:23:53.223Z,64.80
2023-04-06T23:26:44.027Z,64.70
2023-04-06T23:29:20.244Z,64.51
2023-04-06T23:31:50.583Z,64.48
2023-04-06T23:34:18.876Z,64.39
2023-04-06T23:36:47.095Z,64.38
2023-04-06T23:39:15.949Z,64.20
2023-04-06T23:41:44.107Z,64.11
2023-04-06T23:44:12.452Z,64.19
2023-04-06T23:46:40.789Z,64.30
2023-04-06T23:49:09.594Z,64.27
2023-04-06T23:51:38.138Z,64.19
2023-04-06T23:54:08.164Z,64.15
2023-04-06T23:56:37.118Z,64.11
2023-04-06T23:59:13.014Z,64.11
